Wednesday, February 21, 2018, 8:09 PM EST
Back to Local

KOXB, Ocean City Municipal Airport

Location: Berlin, MD, United States Lat: 38.317
Local Time: 8:09 PM EST ( 1:09 GMT) Lon: -75.117
Time Zone: US/Eastern Elev: 13 ft

Show me the last for .
Show Decoded

2018-02-21 19:53 METAR KOXB 220053Z AUTO 20007KT 10SM CLR 14/13 A3036 RMK AO2 SLP281 T01440133 =
2018-02-21 18:53 METAR KOXB 212353Z AUTO 19004KT 10SM CLR 12/11 A3036 RMK AO2 SLP279 T01170111
                 10233 20111 53007 =
2018-02-21 17:53 METAR KOXB 212253Z AUTO 21008KT 10SM CLR 13/12 A3034 RMK AO2 SLP275 T01330122 =
2018-02-21 16:53 METAR KOXB 212153Z AUTO 19006KT 10SM CLR 14/12 A3034 RMK AO2 SLP274 T01390122 =
2018-02-21 15:53 METAR KOXB 212053Z AUTO 19008KT 10SM CLR 17/14 A3033 RMK AO2 SLP272 T01720139
                 56009 =
2018-02-21 14:53 METAR KOXB 211953Z AUTO 20009KT 10SM CLR 18/14 A3033 RMK AO2 SLP272 T01830144 =
2018-02-21 13:53 METAR KOXB 211853Z AUTO 22014G21KT 10SM CLR 23/17 A3034 RMK AO2 SLP272 T02330172
                 =
2018-02-21 12:53 METAR KOXB 211753Z AUTO 24018G25KT 10SM CLR 22/17 A3036 RMK AO2 PK WND
                 26026/1734 SLP281 T02220172 10228 20128 58019 =
2018-02-21 11:53 METAR KOXB 211653Z AUTO 25016G28KT 10SM FEW022 22/17 A3039 RMK AO2 PK WND
                 24028/1647 SLP290 T02220172 =
2018-02-21 10:53 METAR KOXB 211553Z AUTO 24012G19KT 10SM SCT016 21/17 A3041 RMK AO2 SLP296
                 T02110172 =
2018-02-21 10:02 METAR KOXB 211502Z AUTO 23011G16KT 10SM OVC016 18/16 A3042 RMK AO2 T01780161 =
2018-02-21 09:53 METAR KOXB 211453Z AUTO 20007KT 10SM OVC014 17/16 A3042 RMK AO2 SLP300 T01670156
                 51004 =
2018-02-21 08:53 METAR KOXB 211353Z AUTO 22005KT 10SM OVC012 15/15 A3042 RMK AO2 SLP299 T01500150
                 =
2018-02-21 08:36 METAR KOXB 211336Z AUTO VRB04KT 8SM BKN010 OVC013 15/15 A3042 RMK AO2 CIG
                 005V012 T01500150 =
2018-02-21 07:53 METAR KOXB 211253Z AUTO 21007KT 6SM BR BKN005 OVC008 13/13 A3042 RMK AO2 SLP299
                 T01280128 =
2018-02-21 07:12 METAR KOXB 211212Z AUTO 22009KT 9SM OVC009 15/15 A3041 RMK AO2 CIG 006V011
                 T01500150 =
2018-02-21 06:53 METAR KOXB 211153Z AUTO 23009KT 9SM SCT002 OVC010 14/14 A3041 RMK AO2 SLP296
                 T01440144 10144 20111 53003 =
2018-02-21 06:40 METAR KOXB 211140Z AUTO 23012KT 3SM BR BKN002 OVC010 14/14 A3041 RMK AO2
                 T01390139 =
2018-02-21 06:19 METAR KOXB 211119Z AUTO 24010KT 1 1/4SM BR OVC002 14/14 A3041 RMK AO2 T01390139
                 =
2018-02-21 05:53 METAR KOXB 211053Z AUTO 20008KT 1/2SM FG VV002 12/12 A3040 RMK AO2 SLP292
                 T01220122 =
2018-02-21 04:53 METAR KOXB 210953Z AUTO 20006KT 3/4SM BR VV002 13/13 A3039 RMK AO2 SLP291
                 T01280128 =
2018-02-21 04:40 METAR KOXB 210940Z AUTO 20006KT 1/2SM FG VV002 12/12 A3039 RMK AO2 T01220122 =
2018-02-21 04:00 METAR KOXB 210900Z AUTO 20008KT 1/4SM FG VV002 12/12 A3039 RMK AO2 T01170117 =
2018-02-21 03:53 METAR KOXB 210853Z AUTO VRB05KT 1/2SM FG VV002 12/12 A3040 RMK AO2 SLP293
                 T01170117 58003 =
2018-02-21 03:41 METAR KOXB 210841Z AUTO 19005KT 1/2SM FG VV002 12/12 A3040 RMK AO2 T01220122 =
2018-02-21 03:29 METAR KOXB 210829Z AUTO 18005KT 1 1/4SM BR OVC002 12/12 A3040 RMK AO2 T01220122
                 =
2018-02-21 03:07 METAR KOXB 210807Z AUTO 19007KT 1/2SM FG VV002 11/11 A3040 RMK AO2 T01110111 =
2018-02-21 02:53 METAR KOXB 210753Z AUTO 20007KT 1SM BR VV003 12/12 A3040 RMK AO2 SLP293
                 T01220122 =
2018-02-21 02:35 METAR KOXB 210735Z AUTO 20006KT 1 1/2SM BR OVC003 12/12 A3040 RMK AO2 T01220122
                 =
2018-02-21 02:27 METAR KOXB 210727Z AUTO 19005KT 2SM BR OVC003 12/12 A3040 RMK AO2 T01220122 =
2018-02-21 02:09 METAR KOXB 210709Z AUTO 21007KT 1SM BR OVC003 12/12 A3040 RMK AO2 T01170117 =
2018-02-21 02:01 METAR KOXB 210701Z AUTO VRB06KT 1 3/4SM BR BKN004 BKN011 12/12 A3040 RMK AO2
                 T01170117 =
2018-02-21 01:53 METAR KOXB 210653Z AUTO 20005KT 5SM BR SCT004 BKN011 12/12 A3041 RMK AO2 SLP296
                 T01220122 =
2018-02-21 01:38 METAR KOXB 210638Z AUTO 20005KT 8SM SCT003 12/12 A3041 RMK AO2 T01220122 =
2018-02-21 01:21 METAR KOXB 210621Z AUTO 20006KT 3SM BR BKN002 OVC006 12/12 A3041 RMK AO2
                 T01170117 =
2018-02-21 00:53 METAR KOXB 210553Z AUTO 20007KT 1 3/4SM BR OVC002 12/12 A3041 RMK AO2 SLP297
                 T01170117 10139 20111 56003 =
2018-02-21 00:37 METAR KOXB 210537Z AUTO 22006KT 3SM BR OVC002 13/13 A3041 RMK AO2 T01280128 =
2018-02-21 00:26 METAR KOXB 210526Z AUTO 20006KT 1SM BR OVC002 12/12 A3041 RMK AO2 T01170117 =
2018-02-20 23:53 METAR KOXB 210453Z AUTO 20009KT 1/2SM FG VV002 11/11 A3041 RMK AO2 SLP297
                 T01110111 401940094 =
2018-02-20 22:53 METAR KOXB 210353Z AUTO 20006KT 3/4SM BR VV002 13/13 A3041 RMK AO2 SLP297
                 T01280128 =
2018-02-20 22:32 METAR KOXB 210332Z AUTO 21008KT 3/4SM BR VV002 13/13 A3041 RMK AO2 T01330133 =
2018-02-20 22:20 METAR KOXB 210320Z AUTO 20007KT 1 1/2SM BR OVC002 14/14 A3041 RMK AO2 T01390139
                 =
2018-02-20 21:53 METAR KOXB 210253Z AUTO 21007KT 1/2SM FG VV002 13/13 A3042 RMK AO2 SLP300
                 T01280128 51004 =
2018-02-20 21:41 METAR KOXB 210241Z AUTO 20006KT 1/2SM FG VV002 12/12 A3042 RMK AO2 T01220122 =
2018-02-20 21:27 METAR KOXB 210227Z AUTO 21007KT 1/4SM FG VV002 12/12 A3042 RMK AO2 T01220122 =
2018-02-20 21:13 METAR KOXB 210213Z AUTO 20007KT 3/4SM BR OVC002 13/13 A3042 RMK AO2 T01280128 =
2018-02-20 21:04 METAR KOXB 210204Z AUTO 20006KT 1SM BR OVC003 12/12 A3042 RMK AO2 T01220122 =
2018-02-20 20:53 METAR KOXB 210153Z AUTO 20007KT 2SM BR OVC003 13/13 A3042 RMK AO2 SLP300
                 T01280128 =
2018-02-20 20:28 METAR KOXB 210128Z AUTO 20008KT 1SM BR VV003 12/12 A3041 RMK AO2 T01220122 =
2018-02-20 20:18 METAR KOXB 210118Z AUTO 19005KT 3/4SM BR VV002 12/12 A3041 RMK AO2 T01170117 =

Support USWX by starting your Amazon purchase here.